Lexington, Massachusetts
Current Conditions -  °F | °C
As of 9:15 AM on Friday 24 Oct 2014 (Local Time) from KBED Reporting Station
Overcast Overcast  
Wind Chill: 44°   Ceiling: 1400
Heat Index: 49°   Visibility: 10mi
Dew Point: 46°   Wind: 12mph
Humidity: 90%   Direction: 320°NW
Pressure: 29.7"   Gusts: NA
Location:  42.45°N, 71.22°W
Report Text: KBED 241315Z 32010KT 10SM OVC014 09/08 A2970 RMK AO2 T00940078
Loading
Personal Weather Stations






























Interactive Weather Map
Tropical Storm Tracking
New forecast layout! Learn more

10-Day Weather Forecast

Advertisements
Track Severe Weather on mobile